sensor_id;sensor_type;location;lat;lon;timestamp;P1;durP1;ratioP1;P2;durP2;ratioP2
23714;SDS011;12036;50.858;4.472;2023-05-29T00:02:07;15.43;;;5.78;;
23714;SDS011;12036;50.858;4.472;2023-05-29T00:04:33;10.85;;;5.65;;
23714;SDS011;12036;50.858;4.472;2023-05-29T00:06:58;17.05;;;6.10;;
23714;SDS011;12036;50.858;4.472;2023-05-29T00:09:24;13.65;;;5.63;;
23714;SDS011;12036;50.858;4.472;2023-05-29T00:11:50;13.98;;;6.05;;
23714;SDS011;12036;50.858;4.472;2023-05-29T00:14:20;10.32;;;5.75;;
23714;SDS011;12036;50.858;4.472;2023-05-29T00:16:47;16.23;;;5.95;;
23714;SDS011;12036;50.858;4.472;2023-05-29T00:19:14;10.45;;;5.15;;
23714;SDS011;12036;50.858;4.472;2023-05-29T00:21:44;12.70;;;6.07;;
23714;SDS011;12036;50.858;4.472;2023-05-29T00:24:13;14.38;;;6.10;;
23714;SDS011;12036;50.858;4.472;2023-05-29T00:26:42;12.77;;;6.13;;
23714;SDS011;12036;50.858;4.472;2023-05-29T00:29:07;13.68;;;6.13;;
23714;SDS011;12036;50.858;4.472;2023-05-29T00:31:33;16.05;;;6.07;;
23714;SDS011;12036;50.858;4.472;2023-05-29T00:34:00;12.43;;;5.72;;
23714;SDS011;12036;50.858;4.472;2023-05-29T00:36:26;12.02;;;5.85;;
23714;SDS011;12036;50.858;4.472;2023-05-29T00:38:53;13.90;;;6.38;;
23714;SDS011;12036;50.858;4.472;2023-05-29T00:41:19;9.43;;;5.72;;
23714;SDS011;12036;50.858;4.472;2023-05-29T00:43:45;10.10;;;6.30;;
23714;SDS011;12036;50.858;4.472;2023-05-29T00:46:11;15.30;;;6.38;;
23714;SDS011;12036;50.858;4.472;2023-05-29T00:48:38;14.05;;;5.70;;
23714;SDS011;12036;50.858;4.472;2023-05-29T00:51:06;12.43;;;6.32;;
23714;SDS011;12036;50.858;4.472;2023-05-29T00:53:32;15.77;;;6.35;;
23714;SDS011;12036;50.858;4.472;2023-05-29T00:55:58;17.08;;;6.68;;
23714;SDS011;12036;50.858;4.472;2023-05-29T00:58:25;15.95;;;6.15;;
23714;SDS011;12036;50.858;4.472;2023-05-29T01:00:51;12.98;;;6.22;;
23714;SDS011;12036;50.858;4.472;2023-05-29T01:03:17;12.25;;;6.53;;
23714;SDS011;12036;50.858;4.472;2023-05-29T01:05:44;15.73;;;6.38;;
23714;SDS011;12036;50.858;4.472;2023-05-29T01:08:11;16.38;;;6.45;;
23714;SDS011;12036;50.858;4.472;2023-05-29T01:10:37;12.80;;;6.05;;
23714;SDS011;12036;50.858;4.472;2023-05-29T01:13:08;10.32;;;6.22;;
23714;SDS011;12036;50.858;4.472;2023-05-29T01:21:48;13.35;;;5.90;;
23714;SDS011;12036;50.858;4.472;2023-05-29T01:24:22;16.08;;;6.82;;
23714;SDS011;12036;50.858;4.472;2023-05-29T01:26:58;13.40;;;6.63;;
23714;SDS011;12036;50.858;4.472;2023-05-29T01:29:29;12.27;;;6.70;;
23714;SDS011;12036;50.858;4.472;2023-05-29T01:31:57;14.85;;;6.78;;
23714;SDS011;12036;50.858;4.472;2023-05-29T01:34:24;15.63;;;6.97;;
23714;SDS011;12036;50.858;4.472;2023-05-29T01:36:50;15.23;;;6.90;;
23714;SDS011;12036;50.858;4.472;2023-05-29T01:39:15;15.85;;;7.32;;
23714;SDS011;12036;50.858;4.472;2023-05-29T01:41:43;18.92;;;6.55;;
23714;SDS011;12036;50.858;4.472;2023-05-29T01:44:10;13.18;;;7.18;;
23714;SDS011;12036;50.858;4.472;2023-05-29T01:46:38;15.18;;;6.28;;
23714;SDS011;12036;50.858;4.472;2023-05-29T01:49:08;13.20;;;6.78;;
23714;SDS011;12036;50.858;4.472;2023-05-29T01:51:36;11.95;;;6.40;;
23714;SDS011;12036;50.858;4.472;2023-05-29T01:54:02;11.32;;;5.72;;
23714;SDS011;12036;50.858;4.472;2023-05-29T01:56:29;14.52;;;6.90;;
23714;SDS011;12036;50.858;4.472;2023-05-29T01:58:56;13.80;;;7.03;;
23714;SDS011;12036;50.858;4.472;2023-05-29T02:01:22;19.20;;;6.15;;
23714;SDS011;12036;50.858;4.472;2023-05-29T02:03:48;14.38;;;6.72;;
23714;SDS011;12036;50.858;4.472;2023-05-29T02:06:16;15.18;;;7.30;;
23714;SDS011;12036;50.858;4.472;2023-05-29T02:08:42;12.95;;;5.78;;
23714;SDS011;12036;50.858;4.472;2023-05-29T02:11:07;19.52;;;6.82;;
23714;SDS011;12036;50.858;4.472;2023-05-29T02:13:33;15.95;;;6.93;;
23714;SDS011;12036;50.858;4.472;2023-05-29T02:15:59;15.20;;;5.90;;
23714;SDS011;12036;50.858;4.472;2023-05-29T02:18:25;15.27;;;6.57;;
23714;SDS011;12036;50.858;4.472;2023-05-29T02:20:51;14.88;;;6.28;;
23714;SDS011;12036;50.858;4.472;2023-05-29T02:23:17;12.70;;;6.38;;
23714;SDS011;12036;50.858;4.472;2023-05-29T02:25:44;13.63;;;6.25;;
23714;SDS011;12036;50.858;4.472;2023-05-29T02:28:10;9.63;;;5.60;;
23714;SDS011;12036;50.858;4.472;2023-05-29T02:30:35;18.75;;;6.18;;
23714;SDS011;12036;50.858;4.472;2023-05-29T02:33:01;12.00;;;5.82;;
23714;SDS011;12036;50.858;4.472;2023-05-29T02:35:27;14.13;;;6.13;;
23714;SDS011;12036;50.858;4.472;2023-05-29T02:37:52;14.73;;;5.53;;
23714;SDS011;12036;50.858;4.472;2023-05-29T02:40:18;13.93;;;5.28;;
23714;SDS011;12036;50.858;4.472;2023-05-29T02:42:44;14.57;;;5.22;;
23714;SDS011;12036;50.858;4.472;2023-05-29T02:45:11;12.77;;;5.30;;
23714;SDS011;12036;50.858;4.472;2023-05-29T02:47:36;11.65;;;5.20;;
23714;SDS011;12036;50.858;4.472;2023-05-29T02:50:02;12.25;;;4.75;;
23714;SDS011;12036;50.858;4.472;2023-05-29T02:52:29;12.50;;;4.93;;
23714;SDS011;12036;50.858;4.472;2023-05-29T02:54:58;14.98;;;4.47;;
23714;SDS011;12036;50.858;4.472;2023-05-29T02:57:24;10.68;;;4.82;;
23714;SDS011;12036;50.858;4.472;2023-05-29T02:59:50;14.10;;;4.50;;
23714;SDS011;12036;50.858;4.472;2023-05-29T03:02:16;13.35;;;4.13;;
23714;SDS011;12036;50.858;4.472;2023-05-29T03:04:42;10.50;;;3.67;;
23714;SDS011;12036;50.858;4.472;2023-05-29T03:07:09;15.90;;;3.67;;
23714;SDS011;12036;50.858;4.472;2023-05-29T03:09:34;10.70;;;3.67;;
23714;SDS011;12036;50.858;4.472;2023-05-29T03:12:00;11.32;;;3.97;;
23714;SDS011;12036;50.858;4.472;2023-05-29T03:14:27;12.32;;;3.72;;
23714;SDS011;12036;50.858;4.472;2023-05-29T03:16:53;12.55;;;3.38;;
23714;SDS011;12036;50.858;4.472;2023-05-29T03:19:19;12.63;;;3.72;;
23714;SDS011;12036;50.858;4.472;2023-05-29T03:21:45;9.88;;;3.58;;
23714;SDS011;12036;50.858;4.472;2023-05-29T03:24:11;13.75;;;3.50;;
23714;SDS011;12036;50.858;4.472;2023-05-29T03:26:40;16.80;;;4.20;;
23714;SDS011;12036;50.858;4.472;2023-05-29T03:29:06;18.40;;;3.72;;
23714;SDS011;12036;50.858;4.472;2023-05-29T03:31:32;12.38;;;3.35;;
23714;SDS011;12036;50.858;4.472;2023-05-29T03:33:58;20.45;;;3.90;;
23714;SDS011;12036;50.858;4.472;2023-05-29T03:36:24;8.02;;;3.45;;
23714;SDS011;12036;50.858;4.472;2023-05-29T03:38:50;15.63;;;3.22;;
23714;SDS011;12036;50.858;4.472;2023-05-29T03:41:15;8.05;;;2.92;;
23714;SDS011;12036;50.858;4.472;2023-05-29T03:43:41;9.32;;;2.88;;
23714;SDS011;12036;50.858;4.472;2023-05-29T03:46:06;11.13;;;2.95;;
23714;SDS011;12036;50.858;4.472;2023-05-29T03:48:32;11.73;;;2.97;;
23714;SDS011;12036;50.858;4.472;2023-05-29T03:50:58;17.70;;;2.85;;
23714;SDS011;12036;50.858;4.472;2023-05-29T03:53:23;15.00;;;3.10;;
23714;SDS011;12036;50.858;4.472;2023-05-29T03:55:49;8.40;;;2.95;;
23714;SDS011;12036;50.858;4.472;2023-05-29T03:58:15;13.63;;;2.53;;
23714;SDS011;12036;50.858;4.472;2023-05-29T04:00:41;16.52;;;3.03;;
23714;SDS011;12036;50.858;4.472;2023-05-29T04:03:06;14.30;;;2.80;;
23714;SDS011;12036;50.858;4.472;2023-05-29T04:05:33;12.45;;;3.10;;
23714;SDS011;12036;50.858;4.472;2023-05-29T04:07:58;10.02;;;3.13;;
23714;SDS011;12036;50.858;4.472;2023-05-29T04:10:24;14.48;;;2.60;;
23714;SDS011;12036;50.858;4.472;2023-05-29T04:12:50;16.60;;;3.38;;
23714;SDS011;12036;50.858;4.472;2023-05-29T04:15:16;12.68;;;2.53;;
23714;SDS011;12036;50.858;4.472;2023-05-29T04:17:41;9.15;;;2.38;;
23714;SDS011;12036;50.858;4.472;2023-05-29T04:20:07;16.35;;;2.75;;
23714;SDS011;12036;50.858;4.472;2023-05-29T04:22:36;12.25;;;2.83;;
23714;SDS011;12036;50.858;4.472;2023-05-29T04:25:03;15.73;;;2.95;;
23714;SDS011;12036;50.858;4.472;2023-05-29T04:27:30;14.18;;;2.72;;
23714;SDS011;12036;50.858;4.472;2023-05-29T04:29:57;13.25;;;3.08;;
23714;SDS011;12036;50.858;4.472;2023-05-29T04:32:23;12.90;;;2.50;;
23714;SDS011;12036;50.858;4.472;2023-05-29T04:34:48;16.35;;;2.50;;
23714;SDS011;12036;50.858;4.472;2023-05-29T04:37:16;11.48;;;2.20;;
23714;SDS011;12036;50.858;4.472;2023-05-29T04:39:42;12.93;;;2.88;;
23714;SDS011;12036;50.858;4.472;2023-05-29T04:42:08;6.35;;;1.90;;
23714;SDS011;12036;50.858;4.472;2023-05-29T04:44:34;12.30;;;2.70;;
23714;SDS011;12036;50.858;4.472;2023-05-29T04:47:00;10.65;;;2.35;;
23714;SDS011;12036;50.858;4.472;2023-05-29T04:49:29;12.00;;;2.42;;
23714;SDS011;12036;50.858;4.472;2023-05-29T04:51:54;14.98;;;2.92;;
23714;SDS011;12036;50.858;4.472;2023-05-29T04:54:21;8.75;;;2.38;;
23714;SDS011;12036;50.858;4.472;2023-05-29T04:56:48;10.38;;;1.92;;
23714;SDS011;12036;50.858;4.472;2023-05-29T04:59:13;9.15;;;2.25;;
23714;SDS011;12036;50.858;4.472;2023-05-29T05:01:39;10.48;;;2.30;;
23714;SDS011;12036;50.858;4.472;2023-05-29T05:04:08;12.30;;;3.00;;
23714;SDS011;12036;50.858;4.472;2023-05-29T05:06:34;11.50;;;2.38;;
23714;SDS011;12036;50.858;4.472;2023-05-29T05:08:59;7.63;;;2.22;;
23714;SDS011;12036;50.858;4.472;2023-05-29T05:11:25;10.45;;;2.22;;
23714;SDS011;12036;50.858;4.472;2023-05-29T05:13:51;13.13;;;2.53;;
23714;SDS011;12036;50.858;4.472;2023-05-29T05:16:17;7.07;;;1.92;;
23714;SDS011;12036;50.858;4.472;2023-05-29T05:18:43;13.80;;;2.30;;
23714;SDS011;12036;50.858;4.472;2023-05-29T05:21:09;12.48;;;2.33;;
23714;SDS011;12036;50.858;4.472;2023-05-29T05:23:35;12.60;;;2.35;;
23714;SDS011;12036;50.858;4.472;2023-05-29T05:26:01;11.98;;;2.10;;
23714;SDS011;12036;50.858;4.472;2023-05-29T05:28:27;8.77;;;2.40;;
23714;SDS011;12036;50.858;4.472;2023-05-29T05:30:52;10.52;;;2.13;;
23714;SDS011;12036;50.858;4.472;2023-05-29T05:33:18;9.52;;;2.40;;
23714;SDS011;12036;50.858;4.472;2023-05-29T05:35:43;8.75;;;2.42;;
23714;SDS011;12036;50.858;4.472;2023-05-29T05:38:09;11.20;;;2.22;;
23714;SDS011;12036;50.858;4.472;2023-05-29T05:40:35;8.35;;;2.05;;
23714;SDS011;12036;50.858;4.472;2023-05-29T05:43:01;11.05;;;2.20;;
23714;SDS011;12036;50.858;4.472;2023-05-29T05:45:26;6.70;;;2.17;;
23714;SDS011;12036;50.858;4.472;2023-05-29T05:47:52;9.60;;;1.95;;
23714;SDS011;12036;50.858;4.472;2023-05-29T05:50:18;12.15;;;2.30;;
23714;SDS011;12036;50.858;4.472;2023-05-29T05:52:43;12.68;;;2.10;;
23714;SDS011;12036;50.858;4.472;2023-05-29T05:55:10;9.80;;;2.22;;
23714;SDS011;12036;50.858;4.472;2023-05-29T05:57:35;10.63;;;2.17;;
23714;SDS011;12036;50.858;4.472;2023-05-29T06:00:02;11.18;;;2.63;;
23714;SDS011;12036;50.858;4.472;2023-05-29T06:02:38;15.52;;;3.05;;
23714;SDS011;12036;50.858;4.472;2023-05-29T06:05:07;12.63;;;2.33;;
23714;SDS011;12036;50.858;4.472;2023-05-29T06:07:34;9.25;;;2.40;;
23714;SDS011;12036;50.858;4.472;2023-05-29T06:10:00;8.57;;;2.10;;
23714;SDS011;12036;50.858;4.472;2023-05-29T06:12:26;9.40;;;2.25;;
23714;SDS011;12036;50.858;4.472;2023-05-29T06:14:52;9.00;;;2.33;;
23714;SDS011;12036;50.858;4.472;2023-05-29T06:17:18;14.63;;;2.80;;
23714;SDS011;12036;50.858;4.472;2023-05-29T06:19:43;13.45;;;2.75;;
23714;SDS011;12036;50.858;4.472;2023-05-29T06:22:09;11.70;;;2.58;;
23714;SDS011;12036;50.858;4.472;2023-05-29T06:24:35;12.48;;;2.20;;
23714;SDS011;12036;50.858;4.472;2023-05-29T06:27:00;12.73;;;2.67;;
23714;SDS011;12036;50.858;4.472;2023-05-29T06:29:26;6.95;;;2.15;;
23714;SDS011;12036;50.858;4.472;2023-05-29T06:31:52;9.55;;;2.45;;
23714;SDS011;12036;50.858;4.472;2023-05-29T06:34:17;14.68;;;2.15;;
23714;SDS011;12036;50.858;4.472;2023-05-29T06:36:43;7.82;;;2.17;;
23714;SDS011;12036;50.858;4.472;2023-05-29T06:39:09;11.10;;;2.28;;
23714;SDS011;12036;50.858;4.472;2023-05-29T06:41:35;10.18;;;2.22;;
23714;SDS011;12036;50.858;4.472;2023-05-29T06:44:01;12.15;;;2.78;;
23714;SDS011;12036;50.858;4.472;2023-05-29T06:46:26;9.05;;;2.10;;
23714;SDS011;12036;50.858;4.472;2023-05-29T06:48:52;8.38;;;1.98;;
23714;SDS011;12036;50.858;4.472;2023-05-29T06:51:17;11.55;;;2.45;;
23714;SDS011;12036;50.858;4.472;2023-05-29T06:53:43;11.60;;;2.95;;
23714;SDS011;12036;50.858;4.472;2023-05-29T06:56:09;7.75;;;2.10;;
23714;SDS011;12036;50.858;4.472;2023-05-29T06:58:34;9.65;;;2.80;;
23714;SDS011;12036;50.858;4.472;2023-05-29T07:01:00;12.50;;;2.50;;
23714;SDS011;12036;50.858;4.472;2023-05-29T07:03:26;8.50;;;2.30;;
23714;SDS011;12036;50.858;4.472;2023-05-29T07:05:52;9.63;;;2.50;;
23714;SDS011;12036;50.858;4.472;2023-05-29T07:08:18;9.00;;;2.40;;
23714;SDS011;12036;50.858;4.472;2023-05-29T07:10:44;11.35;;;2.55;;
23714;SDS011;12036;50.858;4.472;2023-05-29T07:13:09;9.95;;;2.40;;
23714;SDS011;12036;50.858;4.472;2023-05-29T07:15:38;12.77;;;2.28;;
23714;SDS011;12036;50.858;4.472;2023-05-29T07:18:04;10.15;;;2.40;;
23714;SDS011;12036;50.858;4.472;2023-05-29T07:20:29;12.50;;;2.30;;
23714;SDS011;12036;50.858;4.472;2023-05-29T07:22:55;10.02;;;2.20;;
23714;SDS011;12036;50.858;4.472;2023-05-29T07:25:21;12.35;;;2.55;;
23714;SDS011;12036;50.858;4.472;2023-05-29T07:27:46;16.17;;;2.85;;
23714;SDS011;12036;50.858;4.472;2023-05-29T07:30:12;10.50;;;2.42;;
23714;SDS011;12036;50.858;4.472;2023-05-29T07:32:38;12.40;;;2.45;;
23714;SDS011;12036;50.858;4.472;2023-05-29T07:35:03;11.38;;;2.70;;
23714;SDS011;12036;50.858;4.472;2023-05-29T07:37:29;14.45;;;2.67;;
23714;SDS011;12036;50.858;4.472;2023-05-29T07:39:56;10.23;;;2.40;;
23714;SDS011;12036;50.858;4.472;2023-05-29T07:42:22;11.70;;;2.67;;
23714;SDS011;12036;50.858;4.472;2023-05-29T07:44:48;9.35;;;2.00;;
23714;SDS011;12036;50.858;4.472;2023-05-29T07:47:13;12.57;;;2.40;;
23714;SDS011;12036;50.858;4.472;2023-05-29T07:49:40;9.18;;;2.10;;
23714;SDS011;12036;50.858;4.472;2023-05-29T07:52:05;10.40;;;2.05;;
23714;SDS011;12036;50.858;4.472;2023-05-29T07:54:32;10.45;;;2.08;;
23714;SDS011;12036;50.858;4.472;2023-05-29T07:57:01;9.98;;;2.17;;
23714;SDS011;12036;50.858;4.472;2023-05-29T07:59:38;12.18;;;2.53;;
23714;SDS011;12036;50.858;4.472;2023-05-29T08:02:06;8.80;;;2.30;;
23714;SDS011;12036;50.858;4.472;2023-05-29T08:04:32;5.68;;;1.95;;
23714;SDS011;12036;50.858;4.472;2023-05-29T08:07:01;12.43;;;2.50;;
23714;SDS011;12036;50.858;4.472;2023-05-29T08:09:30;7.57;;;2.10;;
23714;SDS011;12036;50.858;4.472;2023-05-29T08:11:55;10.93;;;2.13;;
23714;SDS011;12036;50.858;4.472;2023-05-29T08:14:21;9.73;;;2.28;;
23714;SDS011;12036;50.858;4.472;2023-05-29T08:16:47;10.68;;;2.40;;
23714;SDS011;12036;50.858;4.472;2023-05-29T08:19:12;6.35;;;1.90;;
23714;SDS011;12036;50.858;4.472;2023-05-29T08:21:38;12.95;;;2.47;;
23714;SDS011;12036;50.858;4.472;2023-05-29T08:24:04;13.40;;;2.50;;
23714;SDS011;12036;50.858;4.472;2023-05-29T08:26:31;7.28;;;2.10;;
23714;SDS011;12036;50.858;4.472;2023-05-29T08:28:56;11.55;;;2.28;;
23714;SDS011;12036;50.858;4.472;2023-05-29T08:31:22;6.90;;;2.08;;
23714;SDS011;12036;50.858;4.472;2023-05-29T08:33:51;13.70;;;2.65;;
23714;SDS011;12036;50.858;4.472;2023-05-29T08:36:18;9.15;;;2.10;;
23714;SDS011;12036;50.858;4.472;2023-05-29T08:38:46;7.18;;;2.03;;
23714;SDS011;12036;50.858;4.472;2023-05-29T08:41:25;9.32;;;2.22;;
23714;SDS011;12036;50.858;4.472;2023-05-29T08:44:06;10.43;;;2.40;;
23714;SDS011;12036;50.858;4.472;2023-05-29T08:46:35;9.90;;;1.90;;
23714;SDS011;12036;50.858;4.472;2023-05-29T08:49:03;15.65;;;3.15;;
23714;SDS011;12036;50.858;4.472;2023-05-29T08:51:31;9.18;;;2.13;;
23714;SDS011;12036;50.858;4.472;2023-05-29T08:54:00;9.82;;;2.58;;
23714;SDS011;12036;50.858;4.472;2023-05-29T08:56:27;8.35;;;2.58;;
23714;SDS011;12036;50.858;4.472;2023-05-29T08:58:53;13.60;;;2.75;;
23714;SDS011;12036;50.858;4.472;2023-05-29T09:01:19;9.13;;;2.50;;
23714;SDS011;12036;50.858;4.472;2023-05-29T09:03:47;8.35;;;2.05;;
23714;SDS011;12036;50.858;4.472;2023-05-29T09:06:13;12.15;;;2.80;;
23714;SDS011;12036;50.858;4.472;2023-05-29T09:08:39;8.13;;;2.10;;
23714;SDS011;12036;50.858;4.472;2023-05-29T09:11:04;12.02;;;2.38;;
23714;SDS011;12036;50.858;4.472;2023-05-29T09:13:30;7.88;;;1.90;;
23714;SDS011;12036;50.858;4.472;2023-05-29T09:15:59;11.35;;;1.92;;
23714;SDS011;12036;50.858;4.472;2023-05-29T09:18:28;9.20;;;2.25;;
23714;SDS011;12036;50.858;4.472;2023-05-29T09:20:56;16.13;;;2.70;;
23714;SDS011;12036;50.858;4.472;2023-05-29T09:23:22;9.20;;;2.20;;
23714;SDS011;12036;50.858;4.472;2023-05-29T09:25:50;13.00;;;2.03;;
23714;SDS011;12036;50.858;4.472;2023-05-29T09:28:18;12.48;;;2.92;;
23714;SDS011;12036;50.858;4.472;2023-05-29T09:30:46;11.48;;;2.70;;
23714;SDS011;12036;50.858;4.472;2023-05-29T09:33:12;9.35;;;2.03;;
23714;SDS011;12036;50.858;4.472;2023-05-29T09:38:06;11.32;;;3.35;;
23714;SDS011;12036;50.858;4.472;2023-05-29T09:40:33;8.02;;;1.77;;
23714;SDS011;12036;50.858;4.472;2023-05-29T09:43:10;9.70;;;2.60;;
23714;SDS011;12036;50.858;4.472;2023-05-29T09:45:42;10.73;;;2.60;;
23714;SDS011;12036;50.858;4.472;2023-05-29T09:48:18;8.52;;;1.90;;
23714;SDS011;12036;50.858;4.472;2023-05-29T09:50:48;9.20;;;2.25;;
23714;SDS011;12036;50.858;4.472;2023-05-29T09:53:18;10.80;;;2.15;;
23714;SDS011;12036;50.858;4.472;2023-05-29T09:55:49;10.85;;;2.00;;
23714;SDS011;12036;50.858;4.472;2023-05-29T09:58:18;12.18;;;2.83;;
23714;SDS011;12036;50.858;4.472;2023-05-29T10:00:44;11.32;;;2.42;;
23714;SDS011;12036;50.858;4.472;2023-05-29T10:03:10;8.75;;;2.40;;
23714;SDS011;12036;50.858;4.472;2023-05-29T10:05:38;9.15;;;2.30;;
23714;SDS011;12036;50.858;4.472;2023-05-29T10:08:05;8.00;;;2.22;;
23714;SDS011;12036;50.858;4.472;2023-05-29T10:10:37;8.73;;;2.35;;
23714;SDS011;12036;50.858;4.472;2023-05-29T10:13:04;7.20;;;1.70;;
23714;SDS011;12036;50.858;4.472;2023-05-29T10:15:34;8.63;;;2.15;;
23714;SDS011;12036;50.858;4.472;2023-05-29T10:18:05;10.13;;;2.08;;
23714;SDS011;12036;50.858;4.472;2023-05-29T10:20:38;7.10;;;2.10;;
23714;SDS011;12036;50.858;4.472;2023-05-29T10:23:05;7.88;;;2.20;;
23714;SDS011;12036;50.858;4.472;2023-05-29T10:25:33;6.28;;;2.10;;
23714;SDS011;12036;50.858;4.472;2023-05-29T10:28:00;12.73;;;2.03;;
23714;SDS011;12036;50.858;4.472;2023-05-29T10:30:28;8.68;;;2.17;;
23714;SDS011;12036;50.858;4.472;2023-05-29T10:36:19;8.02;;;2.10;;
23714;SDS011;12036;50.858;4.472;2023-05-29T10:38:52;6.03;;;2.10;;
23714;SDS011;12036;50.858;4.472;2023-05-29T10:43:55;6.97;;;1.85;;
23714;SDS011;12036;50.858;4.472;2023-05-29T10:49:19;9.50;;;1.90;;
23714;SDS011;12036;50.858;4.472;2023-05-29T10:51:45;8.23;;;2.13;;
23714;SDS011;12036;50.858;4.472;2023-05-29T10:54:13;9.95;;;2.05;;
23714;SDS011;12036;50.858;4.472;2023-05-29T10:56:39;7.95;;;2.08;;
23714;SDS011;12036;50.858;4.472;2023-05-29T10:59:08;9.80;;;2.05;;
23714;SDS011;12036;50.858;4.472;2023-05-29T11:01:34;13.40;;;2.65;;
23714;SDS011;12036;50.858;4.472;2023-05-29T11:04:25;11.55;;;2.00;;
23714;SDS011;12036;50.858;4.472;2023-05-29T11:06:56;6.22;;;2.25;;
23714;SDS011;12036;50.858;4.472;2023-05-29T11:09:27;5.10;;;1.73;;
23714;SDS011;12036;50.858;4.472;2023-05-29T11:15:06;7.80;;;1.73;;
23714;SDS011;12036;50.858;4.472;2023-05-29T11:20:13;10.20;;;2.45;;
23714;SDS011;12036;50.858;4.472;2023-05-29T11:25:25;8.02;;;1.98;;
23714;SDS011;12036;50.858;4.472;2023-05-29T11:27:52;7.55;;;1.85;;
23714;SDS011;12036;50.858;4.472;2023-05-29T11:30:18;8.23;;;2.35;;
23714;SDS011;12036;50.858;4.472;2023-05-29T11:32:45;5.65;;;1.63;;
23714;SDS011;12036;50.858;4.472;2023-05-29T11:35:12;8.15;;;1.77;;
23714;SDS011;12036;50.858;4.472;2023-05-29T11:37:39;5.97;;;2.00;;
23714;SDS011;12036;50.858;4.472;2023-05-29T11:40:07;7.03;;;2.05;;
23714;SDS011;12036;50.858;4.472;2023-05-29T11:42:34;13.43;;;2.42;;
23714;SDS011;12036;50.858;4.472;2023-05-29T11:45:10;7.93;;;1.92;;
23714;SDS011;12036;50.858;4.472;2023-05-29T11:47:59;7.03;;;1.70;;
23714;SDS011;12036;50.858;4.472;2023-05-29T11:50:30;7.70;;;2.15;;
23714;SDS011;12036;50.858;4.472;2023-05-29T11:52:57;4.43;;;1.65;;
23714;SDS011;12036;50.858;4.472;2023-05-29T11:55:24;11.10;;;2.03;;
23714;SDS011;12036;50.858;4.472;2023-05-29T11:57:52;11.48;;;2.30;;
23714;SDS011;12036;50.858;4.472;2023-05-29T12:00:24;6.22;;;1.75;;
23714;SDS011;12036;50.858;4.472;2023-05-29T12:02:51;6.22;;;2.10;;
23714;SDS011;12036;50.858;4.472;2023-05-29T12:05:17;7.05;;;2.13;;
23714;SDS011;12036;50.858;4.472;2023-05-29T12:07:53;7.85;;;2.20;;
23714;SDS011;12036;50.858;4.472;2023-05-29T12:10:23;10.07;;;2.25;;
23714;SDS011;12036;50.858;4.472;2023-05-29T12:12:52;9.30;;;1.65;;
23714;SDS011;12036;50.858;4.472;2023-05-29T12:15:19;7.22;;;2.28;;
23714;SDS011;12036;50.858;4.472;2023-05-29T12:17:47;7.82;;;2.10;;
23714;SDS011;12036;50.858;4.472;2023-05-29T12:20:14;7.45;;;1.90;;
23714;SDS011;12036;50.858;4.472;2023-05-29T12:22:41;7.95;;;2.05;;
23714;SDS011;12036;50.858;4.472;2023-05-29T12:25:09;11.52;;;2.22;;
23714;SDS011;12036;50.858;4.472;2023-05-29T12:27:40;6.38;;;1.67;;
23714;SDS011;12036;50.858;4.472;2023-05-29T12:30:11;7.20;;;2.45;;
23714;SDS011;12036;50.858;4.472;2023-05-29T12:32:41;5.97;;;1.65;;
23714;SDS011;12036;50.858;4.472;2023-05-29T12:37:54;8.23;;;1.92;;
23714;SDS011;12036;50.858;4.472;2023-05-29T12:40:27;8.10;;;1.58;;
23714;SDS011;12036;50.858;4.472;2023-05-29T12:42:55;5.32;;;1.83;;
23714;SDS011;12036;50.858;4.472;2023-05-29T12:45:31;5.55;;;1.60;;
23714;SDS011;12036;50.858;4.472;2023-05-29T12:47:59;8.05;;;1.90;;
23714;SDS011;12036;50.858;4.472;2023-05-29T12:50:32;7.07;;;2.10;;
23714;SDS011;12036;50.858;4.472;2023-05-29T12:53:07;11.57;;;2.08;;
23714;SDS011;12036;50.858;4.472;2023-05-29T12:55:40;6.30;;;1.88;;
23714;SDS011;12036;50.858;4.472;2023-05-29T13:00:38;6.57;;;1.83;;
23714;SDS011;12036;50.858;4.472;2023-05-29T13:03:05;4.40;;;1.77;;
23714;SDS011;12036;50.858;4.472;2023-05-29T13:05:31;7.50;;;1.77;;
23714;SDS011;12036;50.858;4.472;2023-05-29T13:07:58;5.03;;;2.20;;
23714;SDS011;12036;50.858;4.472;2023-05-29T13:10:24;7.05;;;2.03;;
23714;SDS011;12036;50.858;4.472;2023-05-29T13:12:50;7.30;;;1.80;;
23714;SDS011;12036;50.858;4.472;2023-05-29T13:15:19;11.57;;;2.13;;
23714;SDS011;12036;50.858;4.472;2023-05-29T13:17:46;6.93;;;1.90;;
23714;SDS011;12036;50.858;4.472;2023-05-29T13:20:12;8.93;;;2.20;;
23714;SDS011;12036;50.858;4.472;2023-05-29T13:22:39;7.57;;;2.05;;
23714;SDS011;12036;50.858;4.472;2023-05-29T13:25:05;8.13;;;1.90;;
23714;SDS011;12036;50.858;4.472;2023-05-29T13:27:32;12.27;;;2.30;;
23714;SDS011;12036;50.858;4.472;2023-05-29T13:30:02;6.47;;;1.95;;
23714;SDS011;12036;50.858;4.472;2023-05-29T13:32:29;9.40;;;2.03;;
23714;SDS011;12036;50.858;4.472;2023-05-29T13:34:55;7.65;;;2.10;;
23714;SDS011;12036;50.858;4.472;2023-05-29T13:37:21;6.82;;;2.10;;
23714;SDS011;12036;50.858;4.472;2023-05-29T13:39:46;7.47;;;2.05;;
23714;SDS011;12036;50.858;4.472;2023-05-29T13:42:12;8.48;;;2.28;;
23714;SDS011;12036;50.858;4.472;2023-05-29T13:44:38;8.55;;;2.38;;
23714;SDS011;12036;50.858;4.472;2023-05-29T13:47:05;8.68;;;2.22;;
23714;SDS011;12036;50.858;4.472;2023-05-29T13:49:31;7.53;;;2.50;;
23714;SDS011;12036;50.858;4.472;2023-05-29T13:51:57;7.30;;;1.90;;
23714;SDS011;12036;50.858;4.472;2023-05-29T13:54:22;8.88;;;2.03;;
23714;SDS011;12036;50.858;4.472;2023-05-29T13:56:48;4.47;;;1.88;;
23714;SDS011;12036;50.858;4.472;2023-05-29T13:59:14;8.30;;;2.15;;
23714;SDS011;12036;50.858;4.472;2023-05-29T14:01:40;10.48;;;2.13;;
23714;SDS011;12036;50.858;4.472;2023-05-29T14:04:06;8.02;;;2.30;;
23714;SDS011;12036;50.858;4.472;2023-05-29T14:06:32;9.68;;;2.33;;
23714;SDS011;12036;50.858;4.472;2023-05-29T14:08:58;5.63;;;2.00;;
23714;SDS011;12036;50.858;4.472;2023-05-29T14:11:24;9.23;;;2.13;;
23714;SDS011;12036;50.858;4.472;2023-05-29T14:13:51;14.45;;;2.50;;
23714;SDS011;12036;50.858;4.472;2023-05-29T14:16:17;6.75;;;2.25;;
23714;SDS011;12036;50.858;4.472;2023-05-29T14:18:43;8.82;;;2.20;;
23714;SDS011;12036;50.858;4.472;2023-05-29T14:21:08;5.85;;;1.98;;
23714;SDS011;12036;50.858;4.472;2023-05-29T14:23:35;7.63;;;1.85;;
23714;SDS011;12036;50.858;4.472;2023-05-29T14:26:01;16.23;;;2.35;;
23714;SDS011;12036;50.858;4.472;2023-05-29T14:28:27;13.90;;;2.17;;
23714;SDS011;12036;50.858;4.472;2023-05-29T14:30:53;8.35;;;1.92;;
23714;SDS011;12036;50.858;4.472;2023-05-29T14:33:18;9.70;;;2.92;;
23714;SDS011;12036;50.858;4.472;2023-05-29T14:35:44;7.85;;;2.20;;
23714;SDS011;12036;50.858;4.472;2023-05-29T14:38:10;6.35;;;1.80;;
23714;SDS011;12036;50.858;4.472;2023-05-29T14:40:35;10.00;;;2.20;;
23714;SDS011;12036;50.858;4.472;2023-05-29T14:43:02;10.30;;;2.47;;
23714;SDS011;12036;50.858;4.472;2023-05-29T14:45:28;7.57;;;2.40;;
23714;SDS011;12036;50.858;4.472;2023-05-29T14:47:53;11.60;;;2.10;;
23714;SDS011;12036;50.858;4.472;2023-05-29T14:50:19;7.00;;;2.13;;
23714;SDS011;12036;50.858;4.472;2023-05-29T14:52:45;9.60;;;2.20;;
23714;SDS011;12036;50.858;4.472;2023-05-29T14:55:12;7.88;;;2.30;;
23714;SDS011;12036;50.858;4.472;2023-05-29T14:57:40;10.63;;;2.13;;
23714;SDS011;12036;50.858;4.472;2023-05-29T15:00:06;10.10;;;2.67;;
23714;SDS011;12036;50.858;4.472;2023-05-29T15:02:32;5.50;;;2.10;;
23714;SDS011;12036;50.858;4.472;2023-05-29T15:04:58;9.80;;;2.03;;
23714;SDS011;12036;50.858;4.472;2023-05-29T15:07:24;8.70;;;2.53;;
23714;SDS011;12036;50.858;4.472;2023-05-29T15:09:51;6.13;;;2.10;;
23714;SDS011;12036;50.858;4.472;2023-05-29T15:12:17;8.23;;;2.42;;